sensor_id;sensor_type;location;lat;lon;timestamp;temperature;humidity
31451;DHT22;18070;52.474;13.304;2023-12-28T00:02:02;6.50;99.90
31451;DHT22;18070;52.474;13.304;2023-12-28T00:04:28;6.50;99.90
31451;DHT22;18070;52.474;13.304;2023-12-28T00:06:55;6.50;99.90
31451;DHT22;18070;52.474;13.304;2023-12-28T00:09:20;6.50;99.90
31451;DHT22;18070;52.474;13.304;2023-12-28T00:11:46;6.50;99.90
31451;DHT22;18070;52.474;13.304;2023-12-28T00:14:11;6.50;99.90
31451;DHT22;18070;52.474;13.304;2023-12-28T00:16:37;6.50;99.90
31451;DHT22;18070;52.474;13.304;2023-12-28T00:19:03;6.50;99.90
31451;DHT22;18070;52.474;13.304;2023-12-28T00:21:30;6.50;99.90
31451;DHT22;18070;52.474;13.304;2023-12-28T00:23:56;6.50;99.90
31451;DHT22;18070;52.474;13.304;2023-12-28T00:26:22;6.50;99.90
31451;DHT22;18070;52.474;13.304;2023-12-28T00:28:47;6.50;99.90
31451;DHT22;18070;52.474;13.304;2023-12-28T00:31:13;6.50;99.90
31451;DHT22;18070;52.474;13.304;2023-12-28T00:33:39;6.40;99.90
31451;DHT22;18070;52.474;13.304;2023-12-28T00:36:05;6.40;99.90
31451;DHT22;18070;52.474;13.304;2023-12-28T00:38:30;6.40;99.90
31451;DHT22;18070;52.474;13.304;2023-12-28T00:40:57;6.40;99.90
31451;DHT22;18070;52.474;13.304;2023-12-28T00:43:23;6.50;99.90
31451;DHT22;18070;52.474;13.304;2023-12-28T00:45:48;6.40;99.90
31451;DHT22;18070;52.474;13.304;2023-12-28T00:48:14;6.50;99.90
31451;DHT22;18070;52.474;13.304;2023-12-28T00:50:40;6.40;99.90
31451;DHT22;18070;52.474;13.304;2023-12-28T00:53:06;6.50;99.90
31451;DHT22;18070;52.474;13.304;2023-12-28T00:55:31;6.50;99.90
31451;DHT22;18070;52.474;13.304;2023-12-28T00:57:57;6.50;99.90
31451;DHT22;18070;52.474;13.304;2023-12-28T01:00:22;6.50;99.90
31451;DHT22;18070;52.474;13.304;2023-12-28T01:02:48;6.50;99.90
31451;DHT22;18070;52.474;13.304;2023-12-28T01:05:14;6.40;99.90
31451;DHT22;18070;52.474;13.304;2023-12-28T01:07:40;6.50;99.90
31451;DHT22;18070;52.474;13.304;2023-12-28T01:10:06;6.50;99.90
31451;DHT22;18070;52.474;13.304;2023-12-28T01:12:33;6.40;99.90
31451;DHT22;18070;52.474;13.304;2023-12-28T01:14:58;6.40;99.90
31451;DHT22;18070;52.474;13.304;2023-12-28T01:17:24;6.40;99.90
31451;DHT22;18070;52.474;13.304;2023-12-28T01:19:49;6.40;99.90
31451;DHT22;18070;52.474;13.304;2023-12-28T01:22:15;6.50;99.90
31451;DHT22;18070;52.474;13.304;2023-12-28T01:24:41;6.50;99.90
31451;DHT22;18070;52.474;13.304;2023-12-28T01:27:07;6.50;99.90
31451;DHT22;18070;52.474;13.304;2023-12-28T01:29:32;6.50;99.90
31451;DHT22;18070;52.474;13.304;2023-12-28T01:32:03;6.60;99.90
31451;DHT22;18070;52.474;13.304;2023-12-28T01:34:28;6.60;99.90
31451;DHT22;18070;52.474;13.304;2023-12-28T01:36:54;6.60;99.90
31451;DHT22;18070;52.474;13.304;2023-12-28T01:39:19;6.60;99.90
31451;DHT22;18070;52.474;13.304;2023-12-28T01:41:45;6.60;99.90
31451;DHT22;18070;52.474;13.304;2023-12-28T01:44:11;6.70;99.90
31451;DHT22;18070;52.474;13.304;2023-12-28T01:46:37;6.70;99.90
31451;DHT22;18070;52.474;13.304;2023-12-28T01:49:03;6.80;99.90
31451;DHT22;18070;52.474;13.304;2023-12-28T01:51:31;6.80;99.90
31451;DHT22;18070;52.474;13.304;2023-12-28T01:53:57;6.80;99.90
31451;DHT22;18070;52.474;13.304;2023-12-28T01:56:23;6.80;99.90
31451;DHT22;18070;52.474;13.304;2023-12-28T01:58:50;6.90;99.90
31451;DHT22;18070;52.474;13.304;2023-12-28T02:01:17;6.90;99.90
31451;DHT22;18070;52.474;13.304;2023-12-28T02:03:43;6.90;99.90
31451;DHT22;18070;52.474;13.304;2023-12-28T02:06:10;6.90;99.90
31451;DHT22;18070;52.474;13.304;2023-12-28T02:08:36;6.90;99.90
31451;DHT22;18070;52.474;13.304;2023-12-28T02:11:02;6.90;99.90
31451;DHT22;18070;52.474;13.304;2023-12-28T02:13:28;6.90;99.90
31451;DHT22;18070;52.474;13.304;2023-12-28T02:15:58;7.00;99.90
31451;DHT22;18070;52.474;13.304;2023-12-28T02:18:33;7.00;99.90
31451;DHT22;18070;52.474;13.304;2023-12-28T02:21:02;7.10;99.90
31451;DHT22;18070;52.474;13.304;2023-12-28T02:23:27;7.10;99.90
31451;DHT22;18070;52.474;13.304;2023-12-28T02:25:53;7.10;99.90
31451;DHT22;18070;52.474;13.304;2023-12-28T02:28:19;7.20;99.90
31451;DHT22;18070;52.474;13.304;2023-12-28T02:30:44;7.20;99.90
31451;DHT22;18070;52.474;13.304;2023-12-28T02:33:26;7.20;99.90
31451;DHT22;18070;52.474;13.304;2023-12-28T02:36:10;7.30;99.90
31451;DHT22;18070;52.474;13.304;2023-12-28T02:38:37;7.40;99.90
31451;DHT22;18070;52.474;13.304;2023-12-28T02:41:03;7.40;99.90
31451;DHT22;18070;52.474;13.304;2023-12-28T02:43:30;7.60;99.90
31451;DHT22;18070;52.474;13.304;2023-12-28T02:45:55;7.60;99.90
31451;DHT22;18070;52.474;13.304;2023-12-28T02:48:21;7.70;99.90
31451;DHT22;18070;52.474;13.304;2023-12-28T02:50:46;7.80;99.90
31451;DHT22;18070;52.474;13.304;2023-12-28T02:53:13;7.80;99.90
31451;DHT22;18070;52.474;13.304;2023-12-28T02:55:38;8.00;99.90
31451;DHT22;18070;52.474;13.304;2023-12-28T02:58:04;8.10;99.90
31451;DHT22;18070;52.474;13.304;2023-12-28T03:00:31;8.20;99.90
31451;DHT22;18070;52.474;13.304;2023-12-28T03:02:56;8.30;99.90
31451;DHT22;18070;52.474;13.304;2023-12-28T03:05:22;8.30;99.90
31451;DHT22;18070;52.474;13.304;2023-12-28T03:07:48;8.40;99.90
31451;DHT22;18070;52.474;13.304;2023-12-28T03:10:13;8.50;99.90
31451;DHT22;18070;52.474;13.304;2023-12-28T03:12:39;8.50;99.90
31451;DHT22;18070;52.474;13.304;2023-12-28T03:15:05;8.60;99.90
31451;DHT22;18070;52.474;13.304;2023-12-28T03:17:31;8.60;99.90
31451;DHT22;18070;52.474;13.304;2023-12-28T03:20:01;8.70;99.90
31451;DHT22;18070;52.474;13.304;2023-12-28T03:22:26;8.70;99.90
31451;DHT22;18070;52.474;13.304;2023-12-28T03:24:52;8.80;99.90
31451;DHT22;18070;52.474;13.304;2023-12-28T03:27:18;8.90;99.90
31451;DHT22;18070;52.474;13.304;2023-12-28T03:29:43;8.90;99.90
31451;DHT22;18070;52.474;13.304;2023-12-28T03:32:09;9.00;99.90
31451;DHT22;18070;52.474;13.304;2023-12-28T03:34:35;9.00;99.90
31451;DHT22;18070;52.474;13.304;2023-12-28T03:37:01;9.00;99.90
31451;DHT22;18070;52.474;13.304;2023-12-28T03:39:27;9.00;99.90
31451;DHT22;18070;52.474;13.304;2023-12-28T03:41:53;9.00;99.90
31451;DHT22;18070;52.474;13.304;2023-12-28T03:44:19;9.00;99.90
31451;DHT22;18070;52.474;13.304;2023-12-28T03:46:47;9.10;99.90
31451;DHT22;18070;52.474;13.304;2023-12-28T03:49:18;9.10;99.90
31451;DHT22;18070;52.474;13.304;2023-12-28T03:51:45;9.10;99.90
31451;DHT22;18070;52.474;13.304;2023-12-28T03:54:11;9.10;99.90
31451;DHT22;18070;52.474;13.304;2023-12-28T03:56:37;9.00;99.90
31451;DHT22;18070;52.474;13.304;2023-12-28T03:59:05;9.00;99.90
31451;DHT22;18070;52.474;13.304;2023-12-28T04:01:32;9.00;99.90
31451;DHT22;18070;52.474;13.304;2023-12-28T04:03:57;9.00;99.90
31451;DHT22;18070;52.474;13.304;2023-12-28T04:06:23;9.00;99.90
31451;DHT22;18070;52.474;13.304;2023-12-28T04:08:49;9.00;99.90
31451;DHT22;18070;52.474;13.304;2023-12-28T04:11:14;9.00;99.90
31451;DHT22;18070;52.474;13.304;2023-12-28T04:13:40;9.00;99.90
31451;DHT22;18070;52.474;13.304;2023-12-28T04:16:06;9.00;99.90
31451;DHT22;18070;52.474;13.304;2023-12-28T04:18:32;9.00;99.90
31451;DHT22;18070;52.474;13.304;2023-12-28T04:20:58;9.10;99.90
31451;DHT22;18070;52.474;13.304;2023-12-28T04:23:23;9.10;99.90
31451;DHT22;18070;52.474;13.304;2023-12-28T04:25:49;9.20;99.90
31451;DHT22;18070;52.474;13.304;2023-12-28T04:28:15;9.20;99.90
31451;DHT22;18070;52.474;13.304;2023-12-28T04:30:40;9.20;99.90
31451;DHT22;18070;52.474;13.304;2023-12-28T04:33:06;9.20;99.90
31451;DHT22;18070;52.474;13.304;2023-12-28T04:35:32;9.20;99.90
31451;DHT22;18070;52.474;13.304;2023-12-28T04:37:57;9.30;99.90
31451;DHT22;18070;52.474;13.304;2023-12-28T04:40:23;9.30;99.90
31451;DHT22;18070;52.474;13.304;2023-12-28T04:42:48;9.30;99.90
31451;DHT22;18070;52.474;13.304;2023-12-28T04:45:14;9.30;99.90
31451;DHT22;18070;52.474;13.304;2023-12-28T04:47:40;9.30;99.90
31451;DHT22;18070;52.474;13.304;2023-12-28T04:50:06;9.30;99.90
31451;DHT22;18070;52.474;13.304;2023-12-28T04:52:32;9.30;99.90
31451;DHT22;18070;52.474;13.304;2023-12-28T04:54:58;9.40;99.90
31451;DHT22;18070;52.474;13.304;2023-12-28T04:57:24;9.40;99.90
31451;DHT22;18070;52.474;13.304;2023-12-28T04:59:51;9.40;99.90
31451;DHT22;18070;52.474;13.304;2023-12-28T05:02:17;9.50;99.90
31451;DHT22;18070;52.474;13.304;2023-12-28T05:04:43;9.50;99.90
31451;DHT22;18070;52.474;13.304;2023-12-28T05:07:08;9.50;99.90
31451;DHT22;18070;52.474;13.304;2023-12-28T05:09:34;9.50;99.90
31451;DHT22;18070;52.474;13.304;2023-12-28T05:12:00;9.50;99.90
31451;DHT22;18070;52.474;13.304;2023-12-28T05:14:25;9.50;99.90
31451;DHT22;18070;52.474;13.304;2023-12-28T05:16:51;9.50;99.90
31451;DHT22;18070;52.474;13.304;2023-12-28T05:19:17;9.60;99.90
31451;DHT22;18070;52.474;13.304;2023-12-28T05:21:42;9.60;99.90
31451;DHT22;18070;52.474;13.304;2023-12-28T05:24:08;9.60;99.90
31451;DHT22;18070;52.474;13.304;2023-12-28T05:26:33;9.60;99.90
31451;DHT22;18070;52.474;13.304;2023-12-28T05:28:59;9.60;99.90
31451;DHT22;18070;52.474;13.304;2023-12-28T05:31:25;9.60;99.90
31451;DHT22;18070;52.474;13.304;2023-12-28T05:33:50;9.60;99.90
31451;DHT22;18070;52.474;13.304;2023-12-28T05:36:16;9.60;99.90
31451;DHT22;18070;52.474;13.304;2023-12-28T05:38:42;9.60;99.90
31451;DHT22;18070;52.474;13.304;2023-12-28T05:41:09;9.60;99.90
31451;DHT22;18070;52.474;13.304;2023-12-28T05:43:35;9.60;99.90
31451;DHT22;18070;52.474;13.304;2023-12-28T05:46:00;9.60;99.90
31451;DHT22;18070;52.474;13.304;2023-12-28T05:48:26;9.60;99.90
31451;DHT22;18070;52.474;13.304;2023-12-28T05:50:52;9.60;99.90
31451;DHT22;18070;52.474;13.304;2023-12-28T05:53:17;9.60;99.90
31451;DHT22;18070;52.474;13.304;2023-12-28T05:55:43;9.60;99.90
31451;DHT22;18070;52.474;13.304;2023-12-28T05:58:09;9.70;99.90
31451;DHT22;18070;52.474;13.304;2023-12-28T06:00:35;9.70;99.90
31451;DHT22;18070;52.474;13.304;2023-12-28T06:03:07;9.70;99.90
31451;DHT22;18070;52.474;13.304;2023-12-28T06:05:33;9.70;99.90
31451;DHT22;18070;52.474;13.304;2023-12-28T06:07:58;9.70;99.90
31451;DHT22;18070;52.474;13.304;2023-12-28T06:10:24;9.70;99.90
31451;DHT22;18070;52.474;13.304;2023-12-28T06:12:50;9.60;99.90
31451;DHT22;18070;52.474;13.304;2023-12-28T06:15:16;9.70;99.90
31451;DHT22;18070;52.474;13.304;2023-12-28T06:17:42;9.70;99.90
31451;DHT22;18070;52.474;13.304;2023-12-28T06:20:08;9.60;99.90
31451;DHT22;18070;52.474;13.304;2023-12-28T06:22:36;9.70;99.90
31451;DHT22;18070;52.474;13.304;2023-12-28T06:25:02;9.70;99.90
31451;DHT22;18070;52.474;13.304;2023-12-28T06:27:29;9.70;99.90
31451;DHT22;18070;52.474;13.304;2023-12-28T06:29:54;9.70;99.90
31451;DHT22;18070;52.474;13.304;2023-12-28T06:32:20;9.70;99.90
31451;DHT22;18070;52.474;13.304;2023-12-28T06:34:46;9.70;99.90
31451;DHT22;18070;52.474;13.304;2023-12-28T06:37:12;9.70;99.90
31451;DHT22;18070;52.474;13.304;2023-12-28T06:39:38;9.60;99.90
31451;DHT22;18070;52.474;13.304;2023-12-28T06:42:04;9.60;99.90
31451;DHT22;18070;52.474;13.304;2023-12-28T06:44:29;9.70;99.90
31451;DHT22;18070;52.474;13.304;2023-12-28T06:46:55;9.70;99.90
31451;DHT22;18070;52.474;13.304;2023-12-28T06:49:21;9.70;99.90
31451;DHT22;18070;52.474;13.304;2023-12-28T06:51:46;9.60;99.90
31451;DHT22;18070;52.474;13.304;2023-12-28T06:54:13;9.60;99.90
31451;DHT22;18070;52.474;13.304;2023-12-28T06:56:38;9.60;99.90
31451;DHT22;18070;52.474;13.304;2023-12-28T06:59:04;9.60;99.90
31451;DHT22;18070;52.474;13.304;2023-12-28T07:01:29;9.60;99.90
31451;DHT22;18070;52.474;13.304;2023-12-28T07:03:55;9.60;99.90
31451;DHT22;18070;52.474;13.304;2023-12-28T07:06:20;9.60;99.90
31451;DHT22;18070;52.474;13.304;2023-12-28T07:08:46;9.70;99.90
31451;DHT22;18070;52.474;13.304;2023-12-28T07:11:12;9.60;99.90
31451;DHT22;18070;52.474;13.304;2023-12-28T07:13:37;9.60;99.90
31451;DHT22;18070;52.474;13.304;2023-12-28T07:16:03;9.60;99.90
31451;DHT22;18070;52.474;13.304;2023-12-28T07:18:29;9.60;99.90
31451;DHT22;18070;52.474;13.304;2023-12-28T07:20:55;9.60;99.90
31451;DHT22;18070;52.474;13.304;2023-12-28T07:23:20;9.60;99.90
31451;DHT22;18070;52.474;13.304;2023-12-28T07:25:46;9.50;99.90
31451;DHT22;18070;52.474;13.304;2023-12-28T07:28:12;9.50;99.90
31451;DHT22;18070;52.474;13.304;2023-12-28T07:30:38;9.60;99.90
31451;DHT22;18070;52.474;13.304;2023-12-28T07:33:04;9.60;99.90
31451;DHT22;18070;52.474;13.304;2023-12-28T07:35:29;9.60;99.90
31451;DHT22;18070;52.474;13.304;2023-12-28T07:37:55;9.50;99.90
31451;DHT22;18070;52.474;13.304;2023-12-28T07:40:21;9.50;99.90
31451;DHT22;18070;52.474;13.304;2023-12-28T07:42:46;9.50;99.90
31451;DHT22;18070;52.474;13.304;2023-12-28T07:45:12;9.50;99.90
31451;DHT22;18070;52.474;13.304;2023-12-28T07:47:38;9.50;99.90
31451;DHT22;18070;52.474;13.304;2023-12-28T07:50:04;9.50;99.90
31451;DHT22;18070;52.474;13.304;2023-12-28T07:52:29;9.50;99.90
31451;DHT22;18070;52.474;13.304;2023-12-28T07:54:55;9.50;99.90
31451;DHT22;18070;52.474;13.304;2023-12-28T07:57:21;9.50;99.90
31451;DHT22;18070;52.474;13.304;2023-12-28T07:59:46;9.50;99.90
31451;DHT22;18070;52.474;13.304;2023-12-28T08:02:12;9.50;99.90
31451;DHT22;18070;52.474;13.304;2023-12-28T08:04:38;9.50;99.90
31451;DHT22;18070;52.474;13.304;2023-12-28T08:07:03;9.50;99.90
31451;DHT22;18070;52.474;13.304;2023-12-28T08:09:29;9.50;99.90
31451;DHT22;18070;52.474;13.304;2023-12-28T08:11:55;9.50;99.90
31451;DHT22;18070;52.474;13.304;2023-12-28T08:14:21;9.50;99.90
31451;DHT22;18070;52.474;13.304;2023-12-28T08:16:46;9.50;99.90
31451;DHT22;18070;52.474;13.304;2023-12-28T08:19:12;9.50;99.90
31451;DHT22;18070;52.474;13.304;2023-12-28T08:21:38;9.50;99.90
31451;DHT22;18070;52.474;13.304;2023-12-28T08:24:04;9.50;99.90
31451;DHT22;18070;52.474;13.304;2023-12-28T08:26:29;9.60;99.90
31451;DHT22;18070;52.474;13.304;2023-12-28T08:28:55;9.60;99.90
31451;DHT22;18070;52.474;13.304;2023-12-28T08:31:21;9.60;99.90
31451;DHT22;18070;52.474;13.304;2023-12-28T08:33:47;9.70;99.90
31451;DHT22;18070;52.474;13.304;2023-12-28T08:36:12;9.70;99.90
31451;DHT22;18070;52.474;13.304;2023-12-28T08:38:38;9.70;99.90
31451;DHT22;18070;52.474;13.304;2023-12-28T08:41:04;9.70;99.90
31451;DHT22;18070;52.474;13.304;2023-12-28T08:43:37;9.70;99.90
31451;DHT22;18070;52.474;13.304;2023-12-28T08:46:02;9.70;99.90
31451;DHT22;18070;52.474;13.304;2023-12-28T08:48:28;9.70;99.90
31451;DHT22;18070;52.474;13.304;2023-12-28T08:50:54;9.70;99.90
31451;DHT22;18070;52.474;13.304;2023-12-28T08:53:19;9.70;99.90
31451;DHT22;18070;52.474;13.304;2023-12-28T08:55:45;9.70;99.90
31451;DHT22;18070;52.474;13.304;2023-12-28T08:58:11;9.70;99.90
31451;DHT22;18070;52.474;13.304;2023-12-28T09:00:36;9.70;99.90
31451;DHT22;18070;52.474;13.304;2023-12-28T09:03:02;9.70;99.90
31451;DHT22;18070;52.474;13.304;2023-12-28T09:05:28;9.80;99.90
31451;DHT22;18070;52.474;13.304;2023-12-28T09:07:53;9.80;99.90
31451;DHT22;18070;52.474;13.304;2023-12-28T09:10:19;9.80;99.90
31451;DHT22;18070;52.474;13.304;2023-12-28T09:12:44;9.80;99.90
31451;DHT22;18070;52.474;13.304;2023-12-28T09:15:10;9.80;99.90
31451;DHT22;18070;52.474;13.304;2023-12-28T09:17:36;9.80;99.90
31451;DHT22;18070;52.474;13.304;2023-12-28T09:20:02;9.80;99.90
31451;DHT22;18070;52.474;13.304;2023-12-28T09:22:28;9.80;99.90
31451;DHT22;18070;52.474;13.304;2023-12-28T09:24:54;9.80;99.90
31451;DHT22;18070;52.474;13.304;2023-12-28T09:27:19;9.90;99.90
31451;DHT22;18070;52.474;13.304;2023-12-28T09:29:45;9.80;99.90
31451;DHT22;18070;52.474;13.304;2023-12-28T09:32:11;9.90;99.90
31451;DHT22;18070;52.474;13.304;2023-12-28T09:34:37;9.80;99.90
31451;DHT22;18070;52.474;13.304;2023-12-28T09:37:02;9.80;99.90
31451;DHT22;18070;52.474;13.304;2023-12-28T09:39:28;9.80;99.90
31451;DHT22;18070;52.474;13.304;2023-12-28T09:42:16;9.80;99.90
31451;DHT22;18070;52.474;13.304;2023-12-28T09:44:43;9.80;99.90
31451;DHT22;18070;52.474;13.304;2023-12-28T09:47:10;9.80;99.90
31451;DHT22;18070;52.474;13.304;2023-12-28T09:49:39;9.80;99.90
31451;DHT22;18070;52.474;13.304;2023-12-28T09:52:06;9.80;99.90
31451;DHT22;18070;52.474;13.304;2023-12-28T09:54:31;9.80;99.90
31451;DHT22;18070;52.474;13.304;2023-12-28T09:56:57;9.80;99.90
31451;DHT22;18070;52.474;13.304;2023-12-28T09:59:24;9.80;99.90
31451;DHT22;18070;52.474;13.304;2023-12-28T10:01:51;9.80;99.90
31451;DHT22;18070;52.474;13.304;2023-12-28T10:04:18;9.90;99.90
31451;DHT22;18070;52.474;13.304;2023-12-28T10:06:44;9.90;99.90
31451;DHT22;18070;52.474;13.304;2023-12-28T10:09:10;10.00;99.90
31451;DHT22;18070;52.474;13.304;2023-12-28T10:11:37;10.10;99.90
31451;DHT22;18070;52.474;13.304;2023-12-28T10:14:04;10.20;99.90
31451;DHT22;18070;52.474;13.304;2023-12-28T10:16:30;10.50;99.90
31451;DHT22;18070;52.474;13.304;2023-12-28T10:18:56;10.70;99.90
31451;DHT22;18070;52.474;13.304;2023-12-28T10:21:23;11.00;99.90
31451;DHT22;18070;52.474;13.304;2023-12-28T10:23:49;11.00;99.90
31451;DHT22;18070;52.474;13.304;2023-12-28T10:26:18;11.20;99.90
31451;DHT22;18070;52.474;13.304;2023-12-28T10:28:44;11.50;99.90
31451;DHT22;18070;52.474;13.304;2023-12-28T10:31:10;11.80;99.90
31451;DHT22;18070;52.474;13.304;2023-12-28T10:33:36;12.30;99.90
31451;DHT22;18070;52.474;13.304;2023-12-28T10:36:06;12.50;99.90
31451;DHT22;18070;52.474;13.304;2023-12-28T10:38:35;12.60;99.90
31451;DHT22;18070;52.474;13.304;2023-12-28T10:41:06;12.60;99.90
31451;DHT22;18070;52.474;13.304;2023-12-28T10:43:38;12.60;99.90
31451;DHT22;18070;52.474;13.304;2023-12-28T10:46:08;12.30;99.90
31451;DHT22;18070;52.474;13.304;2023-12-28T10:48:38;12.30;99.90
31451;DHT22;18070;52.474;13.304;2023-12-28T10:51:08;12.60;99.90
31451;DHT22;18070;52.474;13.304;2023-12-28T10:53:46;12.90;99.90
31451;DHT22;18070;52.474;13.304;2023-12-28T10:59:09;12.80;99.90
31451;DHT22;18070;52.474;13.304;2023-12-28T11:01:40;12.50;99.90
31451;DHT22;18070;52.474;13.304;2023-12-28T11:04:14;12.40;99.90
31451;DHT22;18070;52.474;13.304;2023-12-28T11:06:43;12.50;99.90
31451;DHT22;18070;52.474;13.304;2023-12-28T11:09:10;12.70;99.90
31451;DHT22;18070;52.474;13.304;2023-12-28T11:11:37;13.00;99.90
31451;DHT22;18070;52.474;13.304;2023-12-28T11:14:03;13.00;99.90
31451;DHT22;18070;52.474;13.304;2023-12-28T11:16:30;12.90;99.90
31451;DHT22;18070;52.474;13.304;2023-12-28T11:18:57;12.60;99.90
31451;DHT22;18070;52.474;13.304;2023-12-28T11:21:23;12.40;99.90
31451;DHT22;18070;52.474;13.304;2023-12-28T11:23:49;12.30;99.90
31451;DHT22;18070;52.474;13.304;2023-12-28T11:26:19;12.10;99.90
31451;DHT22;18070;52.474;13.304;2023-12-28T11:28:46;12.10;99.90
31451;DHT22;18070;52.474;13.304;2023-12-28T11:31:15;12.10;99.90
31451;DHT22;18070;52.474;13.304;2023-12-28T11:33:47;12.30;99.90
31451;DHT22;18070;52.474;13.304;2023-12-28T11:39:01;12.10;99.90
